sensor_id;sensor_type;location;lat;lon;timestamp;temperature;humidity
5588;DHT22;2816;49.778;9.986;2024-02-28T00:00:00;6.30;99.90
5588;DHT22;2816;49.778;9.986;2024-02-28T00:02:27;6.30;99.90
5588;DHT22;2816;49.778;9.986;2024-02-28T00:04:55;6.30;99.90
5588;DHT22;2816;49.778;9.986;2024-02-28T00:07:24;6.30;99.90
5588;DHT22;2816;49.778;9.986;2024-02-28T00:09:52;6.30;99.90
5588;DHT22;2816;49.778;9.986;2024-02-28T00:12:23;6.30;99.90
5588;DHT22;2816;49.778;9.986;2024-02-28T00:14:51;6.30;99.90
5588;DHT22;2816;49.778;9.986;2024-02-28T00:17:18;6.30;99.90
5588;DHT22;2816;49.778;9.986;2024-02-28T00:19:45;6.20;99.90
5588;DHT22;2816;49.778;9.986;2024-02-28T00:22:12;6.20;99.90
5588;DHT22;2816;49.778;9.986;2024-02-28T00:24:39;6.20;99.90
5588;DHT22;2816;49.778;9.986;2024-02-28T00:27:08;6.20;99.90
5588;DHT22;2816;49.778;9.986;2024-02-28T00:29:35;6.10;99.90
5588;DHT22;2816;49.778;9.986;2024-02-28T00:32:02;6.10;99.90
5588;DHT22;2816;49.778;9.986;2024-02-28T00:34:29;6.10;99.90
5588;DHT22;2816;49.778;9.986;2024-02-28T00:36:56;6.00;99.90
5588;DHT22;2816;49.778;9.986;2024-02-28T00:39:23;6.00;99.90
5588;DHT22;2816;49.778;9.986;2024-02-28T00:41:49;6.00;99.90
5588;DHT22;2816;49.778;9.986;2024-02-28T00:44:18;6.00;99.90
5588;DHT22;2816;49.778;9.986;2024-02-28T00:46:44;5.90;99.90
5588;DHT22;2816;49.778;9.986;2024-02-28T00:49:11;5.90;99.90
5588;DHT22;2816;49.778;9.986;2024-02-28T00:51:38;5.90;99.90
5588;DHT22;2816;49.778;9.986;2024-02-28T00:54:05;5.90;99.90
5588;DHT22;2816;49.778;9.986;2024-02-28T00:56:33;5.80;99.90
5588;DHT22;2816;49.778;9.986;2024-02-28T00:59:00;5.80;99.90
5588;DHT22;2816;49.778;9.986;2024-02-28T01:01:28;5.80;99.90
5588;DHT22;2816;49.778;9.986;2024-02-28T01:03:55;5.80;99.90
5588;DHT22;2816;49.778;9.986;2024-02-28T01:06:22;5.80;99.90
5588;DHT22;2816;49.778;9.986;2024-02-28T01:08:49;5.80;99.90
5588;DHT22;2816;49.778;9.986;2024-02-28T01:11:16;5.80;99.90
5588;DHT22;2816;49.778;9.986;2024-02-28T01:13:43;5.70;99.90
5588;DHT22;2816;49.778;9.986;2024-02-28T01:16:09;5.80;99.90
5588;DHT22;2816;49.778;9.986;2024-02-28T01:18:38;5.80;99.90
5588;DHT22;2816;49.778;9.986;2024-02-28T01:21:04;5.70;99.90
5588;DHT22;2816;49.778;9.986;2024-02-28T01:23:31;5.80;99.90
5588;DHT22;2816;49.778;9.986;2024-02-28T01:25:58;5.70;99.90
5588;DHT22;2816;49.778;9.986;2024-02-28T01:28:28;5.80;99.90
5588;DHT22;2816;49.778;9.986;2024-02-28T01:30:55;5.80;99.90
5588;DHT22;2816;49.778;9.986;2024-02-28T01:33:22;5.70;99.90
5588;DHT22;2816;49.778;9.986;2024-02-28T01:35:51;5.70;99.90
5588;DHT22;2816;49.778;9.986;2024-02-28T01:38:17;5.80;99.90
5588;DHT22;2816;49.778;9.986;2024-02-28T01:40:45;5.70;99.90
5588;DHT22;2816;49.778;9.986;2024-02-28T01:43:12;5.70;99.90
5588;DHT22;2816;49.778;9.986;2024-02-28T01:45:39;5.70;99.90
5588;DHT22;2816;49.778;9.986;2024-02-28T01:48:07;5.80;99.90
5588;DHT22;2816;49.778;9.986;2024-02-28T01:50:36;5.80;99.90
5588;DHT22;2816;49.778;9.986;2024-02-28T01:53:06;5.80;99.90
5588;DHT22;2816;49.778;9.986;2024-02-28T01:55:35;5.70;99.90
5588;DHT22;2816;49.778;9.986;2024-02-28T01:58:02;5.60;99.90
5588;DHT22;2816;49.778;9.986;2024-02-28T02:00:32;5.60;99.90
5588;DHT22;2816;49.778;9.986;2024-02-28T02:02:59;5.60;99.90
5588;DHT22;2816;49.778;9.986;2024-02-28T02:05:27;5.70;99.90
5588;DHT22;2816;49.778;9.986;2024-02-28T02:07:54;5.60;99.90
5588;DHT22;2816;49.778;9.986;2024-02-28T02:10:25;5.60;99.90
5588;DHT22;2816;49.778;9.986;2024-02-28T02:12:52;5.60;99.90
5588;DHT22;2816;49.778;9.986;2024-02-28T02:15:19;5.60;99.90
5588;DHT22;2816;49.778;9.986;2024-02-28T02:17:46;5.70;99.90
5588;DHT22;2816;49.778;9.986;2024-02-28T02:20:14;5.60;99.90
5588;DHT22;2816;49.778;9.986;2024-02-28T02:22:43;5.60;99.90
5588;DHT22;2816;49.778;9.986;2024-02-28T02:25:10;5.70;99.90
5588;DHT22;2816;49.778;9.986;2024-02-28T02:27:37;5.70;99.90
5588;DHT22;2816;49.778;9.986;2024-02-28T02:30:05;5.60;99.90
5588;DHT22;2816;49.778;9.986;2024-02-28T02:32:31;5.60;99.90
5588;DHT22;2816;49.778;9.986;2024-02-28T02:34:57;5.60;99.90
5588;DHT22;2816;49.778;9.986;2024-02-28T02:37:24;5.60;99.90
5588;DHT22;2816;49.778;9.986;2024-02-28T02:39:53;5.60;99.90
5588;DHT22;2816;49.778;9.986;2024-02-28T02:42:20;5.60;99.90
5588;DHT22;2816;49.778;9.986;2024-02-28T02:44:47;5.60;99.90
5588;DHT22;2816;49.778;9.986;2024-02-28T02:47:13;5.60;99.90
5588;DHT22;2816;49.778;9.986;2024-02-28T02:49:40;5.60;99.90
5588;DHT22;2816;49.778;9.986;2024-02-28T02:52:07;5.60;99.90
5588;DHT22;2816;49.778;9.986;2024-02-28T02:54:34;5.60;99.90
5588;DHT22;2816;49.778;9.986;2024-02-28T02:57:03;5.60;99.90
5588;DHT22;2816;49.778;9.986;2024-02-28T02:59:30;5.60;99.90
5588;DHT22;2816;49.778;9.986;2024-02-28T03:01:58;5.60;99.90
5588;DHT22;2816;49.778;9.986;2024-02-28T03:04:25;5.70;99.90
5588;DHT22;2816;49.778;9.986;2024-02-28T03:06:52;5.60;99.90
5588;DHT22;2816;49.778;9.986;2024-02-28T03:09:19;5.70;99.90
5588;DHT22;2816;49.778;9.986;2024-02-28T03:11:46;5.60;99.90
5588;DHT22;2816;49.778;9.986;2024-02-28T03:14:14;5.60;99.90
5588;DHT22;2816;49.778;9.986;2024-02-28T03:16:41;5.50;99.90
5588;DHT22;2816;49.778;9.986;2024-02-28T03:19:09;5.50;99.90
5588;DHT22;2816;49.778;9.986;2024-02-28T03:21:36;5.50;99.90
5588;DHT22;2816;49.778;9.986;2024-02-28T03:24:03;5.60;99.90
5588;DHT22;2816;49.778;9.986;2024-02-28T03:26:30;5.60;99.90
5588;DHT22;2816;49.778;9.986;2024-02-28T03:28:57;5.60;99.90
5588;DHT22;2816;49.778;9.986;2024-02-28T03:31:26;5.60;99.90
5588;DHT22;2816;49.778;9.986;2024-02-28T03:33:52;5.50;99.90
5588;DHT22;2816;49.778;9.986;2024-02-28T03:36:19;5.60;99.90
5588;DHT22;2816;49.778;9.986;2024-02-28T03:38:46;5.50;99.90
5588;DHT22;2816;49.778;9.986;2024-02-28T03:41:13;5.50;99.90
5588;DHT22;2816;49.778;9.986;2024-02-28T03:43:40;5.60;99.90
5588;DHT22;2816;49.778;9.986;2024-02-28T03:46:07;5.60;99.90
5588;DHT22;2816;49.778;9.986;2024-02-28T03:48:36;5.60;99.90
5588;DHT22;2816;49.778;9.986;2024-02-28T03:51:03;5.60;99.90
5588;DHT22;2816;49.778;9.986;2024-02-28T03:53:31;5.60;99.90
5588;DHT22;2816;49.778;9.986;2024-02-28T03:55:58;5.60;99.90
5588;DHT22;2816;49.778;9.986;2024-02-28T03:58:24;5.60;99.90
5588;DHT22;2816;49.778;9.986;2024-02-28T04:00:51;5.60;99.90
5588;DHT22;2816;49.778;9.986;2024-02-28T04:03:18;5.50;99.90
5588;DHT22;2816;49.778;9.986;2024-02-28T04:05:46;5.50;99.90
5588;DHT22;2816;49.778;9.986;2024-02-28T04:08:13;5.50;99.90
5588;DHT22;2816;49.778;9.986;2024-02-28T04:10:40;5.40;99.90
5588;DHT22;2816;49.778;9.986;2024-02-28T04:13:07;5.50;99.90
5588;DHT22;2816;49.778;9.986;2024-02-28T04:15:34;5.50;99.90
5588;DHT22;2816;49.778;9.986;2024-02-28T04:18:03;5.50;99.90
5588;DHT22;2816;49.778;9.986;2024-02-28T04:20:30;5.50;99.90
5588;DHT22;2816;49.778;9.986;2024-02-28T04:22:58;5.40;99.90
5588;DHT22;2816;49.778;9.986;2024-02-28T04:25:25;5.50;99.90
5588;DHT22;2816;49.778;9.986;2024-02-28T04:27:52;5.50;99.90
5588;DHT22;2816;49.778;9.986;2024-02-28T04:30:19;5.50;99.90
5588;DHT22;2816;49.778;9.986;2024-02-28T04:32:45;5.50;99.90
5588;DHT22;2816;49.778;9.986;2024-02-28T04:35:12;5.50;99.90
5588;DHT22;2816;49.778;9.986;2024-02-28T04:37:41;5.50;99.90
5588;DHT22;2816;49.778;9.986;2024-02-28T04:40:10;5.50;99.90
5588;DHT22;2816;49.778;9.986;2024-02-28T04:42:37;5.50;99.90
5588;DHT22;2816;49.778;9.986;2024-02-28T04:45:05;5.50;99.90
5588;DHT22;2816;49.778;9.986;2024-02-28T04:47:32;5.50;99.90
5588;DHT22;2816;49.778;9.986;2024-02-28T04:49:59;5.50;99.90
5588;DHT22;2816;49.778;9.986;2024-02-28T04:52:26;5.50;99.90
5588;DHT22;2816;49.778;9.986;2024-02-28T04:54:52;5.50;99.90
5588;DHT22;2816;49.778;9.986;2024-02-28T04:57:21;5.50;99.90
5588;DHT22;2816;49.778;9.986;2024-02-28T04:59:48;5.50;99.90
5588;DHT22;2816;49.778;9.986;2024-02-28T05:02:15;5.50;99.90
5588;DHT22;2816;49.778;9.986;2024-02-28T05:04:42;5.50;99.90
5588;DHT22;2816;49.778;9.986;2024-02-28T05:07:09;5.50;99.90
5588;DHT22;2816;49.778;9.986;2024-02-28T05:09:36;5.50;99.90
5588;DHT22;2816;49.778;9.986;2024-02-28T05:12:03;5.40;99.90
5588;DHT22;2816;49.778;9.986;2024-02-28T05:14:31;5.30;99.90
5588;DHT22;2816;49.778;9.986;2024-02-28T05:16:58;5.30;99.90
5588;DHT22;2816;49.778;9.986;2024-02-28T05:19:25;5.30;99.90
5588;DHT22;2816;49.778;9.986;2024-02-28T05:21:51;5.20;99.90
5588;DHT22;2816;49.778;9.986;2024-02-28T05:24:18;5.20;99.90
5588;DHT22;2816;49.778;9.986;2024-02-28T05:26:45;5.30;99.90
5588;DHT22;2816;49.778;9.986;2024-02-28T05:29:12;5.30;99.90
5588;DHT22;2816;49.778;9.986;2024-02-28T05:31:41;5.30;99.90
5588;DHT22;2816;49.778;9.986;2024-02-28T05:34:07;5.30;99.90
5588;DHT22;2816;49.778;9.986;2024-02-28T05:36:34;5.30;99.90
5588;DHT22;2816;49.778;9.986;2024-02-28T05:39:01;5.20;99.90
5588;DHT22;2816;49.778;9.986;2024-02-28T05:41:31;5.20;99.90
5588;DHT22;2816;49.778;9.986;2024-02-28T05:43:58;5.20;99.90
5588;DHT22;2816;49.778;9.986;2024-02-28T05:46:24;5.30;99.90
5588;DHT22;2816;49.778;9.986;2024-02-28T05:48:53;5.40;99.90
5588;DHT22;2816;49.778;9.986;2024-02-28T05:51:20;5.40;99.90
5588;DHT22;2816;49.778;9.986;2024-02-28T05:53:48;5.40;99.90
5588;DHT22;2816;49.778;9.986;2024-02-28T05:56:15;5.40;99.90
5588;DHT22;2816;49.778;9.986;2024-02-28T05:58:46;5.40;99.90
5588;DHT22;2816;49.778;9.986;2024-02-28T06:01:15;5.40;99.90
5588;DHT22;2816;49.778;9.986;2024-02-28T06:03:42;5.30;99.90
5588;DHT22;2816;49.778;9.986;2024-02-28T06:06:12;5.30;99.90
5588;DHT22;2816;49.778;9.986;2024-02-28T06:08:40;5.30;99.90
5588;DHT22;2816;49.778;9.986;2024-02-28T06:11:07;5.40;99.90
5588;DHT22;2816;49.778;9.986;2024-02-28T06:13:35;5.30;99.90
5588;DHT22;2816;49.778;9.986;2024-02-28T06:16:01;5.40;99.90
5588;DHT22;2816;49.778;9.986;2024-02-28T06:18:29;5.40;99.90
5588;DHT22;2816;49.778;9.986;2024-02-28T06:20:59;5.50;99.90
5588;DHT22;2816;49.778;9.986;2024-02-28T06:23:28;5.40;99.90
5588;DHT22;2816;49.778;9.986;2024-02-28T06:25:55;5.40;99.90
5588;DHT22;2816;49.778;9.986;2024-02-28T06:28:22;5.40;99.90
5588;DHT22;2816;49.778;9.986;2024-02-28T06:30:49;5.40;99.90
5588;DHT22;2816;49.778;9.986;2024-02-28T06:33:16;5.40;99.90
5588;DHT22;2816;49.778;9.986;2024-02-28T06:35:44;5.40;99.90
5588;DHT22;2816;49.778;9.986;2024-02-28T06:38:11;5.40;99.90
5588;DHT22;2816;49.778;9.986;2024-02-28T06:40:39;5.40;99.90
5588;DHT22;2816;49.778;9.986;2024-02-28T06:43:06;5.40;99.90
5588;DHT22;2816;49.778;9.986;2024-02-28T06:45:33;5.40;99.90
5588;DHT22;2816;49.778;9.986;2024-02-28T06:48:00;5.30;99.90
5588;DHT22;2816;49.778;9.986;2024-02-28T06:50:27;5.10;99.90
5588;DHT22;2816;49.778;9.986;2024-02-28T06:52:54;5.00;99.90
5588;DHT22;2816;49.778;9.986;2024-02-28T06:55:21;5.00;99.90
5588;DHT22;2816;49.778;9.986;2024-02-28T06:57:49;5.00;99.90
5588;DHT22;2816;49.778;9.986;2024-02-28T07:00:16;5.10;99.90
5588;DHT22;2816;49.778;9.986;2024-02-28T07:02:44;5.10;99.90
5588;DHT22;2816;49.778;9.986;2024-02-28T07:05:12;5.10;99.90
5588;DHT22;2816;49.778;9.986;2024-02-28T07:07:39;5.10;99.90
5588;DHT22;2816;49.778;9.986;2024-02-28T07:10:06;5.10;99.90
5588;DHT22;2816;49.778;9.986;2024-02-28T07:12:33;5.10;99.90
5588;DHT22;2816;49.778;9.986;2024-02-28T07:15:02;5.10;99.90
5588;DHT22;2816;49.778;9.986;2024-02-28T07:17:29;5.20;99.90
5588;DHT22;2816;49.778;9.986;2024-02-28T07:19:55;5.20;99.90
5588;DHT22;2816;49.778;9.986;2024-02-28T07:22:23;5.20;99.90
5588;DHT22;2816;49.778;9.986;2024-02-28T07:24:49;5.20;99.90
5588;DHT22;2816;49.778;9.986;2024-02-28T07:27:16;5.30;99.90
5588;DHT22;2816;49.778;9.986;2024-02-28T07:29:43;5.30;99.90
5588;DHT22;2816;49.778;9.986;2024-02-28T07:32:11;5.30;99.90
5588;DHT22;2816;49.778;9.986;2024-02-28T07:34:39;5.40;99.90
5588;DHT22;2816;49.778;9.986;2024-02-28T07:37:06;5.30;99.90
5588;DHT22;2816;49.778;9.986;2024-02-28T07:39:33;5.20;99.90
5588;DHT22;2816;49.778;9.986;2024-02-28T07:42:00;5.20;99.90
5588;DHT22;2816;49.778;9.986;2024-02-28T07:44:26;5.20;99.90
5588;DHT22;2816;49.778;9.986;2024-02-28T07:46:56;5.20;99.90
5588;DHT22;2816;49.778;9.986;2024-02-28T07:49:24;5.40;99.90
5588;DHT22;2816;49.778;9.986;2024-02-28T07:51:52;5.30;99.90
5588;DHT22;2816;49.778;9.986;2024-02-28T07:54:18;5.30;99.90
5588;DHT22;2816;49.778;9.986;2024-02-28T07:56:45;5.10;99.90
5588;DHT22;2816;49.778;9.986;2024-02-28T07:59:12;5.10;99.90
5588;DHT22;2816;49.778;9.986;2024-02-28T08:01:39;5.10;99.90
5588;DHT22;2816;49.778;9.986;2024-02-28T08:04:06;5.10;99.90
5588;DHT22;2816;49.778;9.986;2024-02-28T08:06:34;5.20;99.90
5588;DHT22;2816;49.778;9.986;2024-02-28T08:09:01;5.20;99.90
5588;DHT22;2816;49.778;9.986;2024-02-28T08:11:29;5.30;99.90
5588;DHT22;2816;49.778;9.986;2024-02-28T08:13:55;5.30;99.90
5588;DHT22;2816;49.778;9.986;2024-02-28T08:16:22;5.30;99.90
5588;DHT22;2816;49.778;9.986;2024-02-28T08:18:49;5.40;99.90
5588;DHT22;2816;49.778;9.986;2024-02-28T08:21:16;5.50;99.90
5588;DHT22;2816;49.778;9.986;2024-02-28T08:23:45;5.50;99.90
5588;DHT22;2816;49.778;9.986;2024-02-28T08:26:13;5.60;99.90
5588;DHT22;2816;49.778;9.986;2024-02-28T08:28:40;5.50;99.90
5588;DHT22;2816;49.778;9.986;2024-02-28T08:31:06;5.60;99.90
5588;DHT22;2816;49.778;9.986;2024-02-28T08:33:33;5.60;99.90
5588;DHT22;2816;49.778;9.986;2024-02-28T08:36:00;5.50;99.90
5588;DHT22;2816;49.778;9.986;2024-02-28T08:38:27;5.50;99.90
5588;DHT22;2816;49.778;9.986;2024-02-28T08:40:55;5.40;99.90
5588;DHT22;2816;49.778;9.986;2024-02-28T08:43:22;5.50;99.90
5588;DHT22;2816;49.778;9.986;2024-02-28T08:45:49;5.60;99.90
5588;DHT22;2816;49.778;9.986;2024-02-28T08:48:17;5.60;99.90
5588;DHT22;2816;49.778;9.986;2024-02-28T08:50:44;5.70;99.90
5588;DHT22;2816;49.778;9.986;2024-02-28T08:53:11;5.80;99.90
5588;DHT22;2816;49.778;9.986;2024-02-28T08:55:38;5.80;99.90
5588;DHT22;2816;49.778;9.986;2024-02-28T08:58:06;5.80;99.90
5588;DHT22;2816;49.778;9.986;2024-02-28T09:00:33;5.80;99.90
5588;DHT22;2816;49.778;9.986;2024-02-28T09:02:59;5.80;99.90
5588;DHT22;2816;49.778;9.986;2024-02-28T09:05:27;5.70;99.90
5588;DHT22;2816;49.778;9.986;2024-02-28T09:07:54;5.70;99.90
5588;DHT22;2816;49.778;9.986;2024-02-28T09:10:22;5.80;99.90
5588;DHT22;2816;49.778;9.986;2024-02-28T09:12:51;5.80;99.90
5588;DHT22;2816;49.778;9.986;2024-02-28T09:15:19;5.70;99.90
5588;DHT22;2816;49.778;9.986;2024-02-28T09:17:46;5.60;99.90
5588;DHT22;2816;49.778;9.986;2024-02-28T09:20:13;5.60;99.90
5588;DHT22;2816;49.778;9.986;2024-02-28T09:22:40;5.70;99.90
5588;DHT22;2816;49.778;9.986;2024-02-28T09:25:08;5.80;99.90
5588;DHT22;2816;49.778;9.986;2024-02-28T09:27:35;5.90;99.90
5588;DHT22;2816;49.778;9.986;2024-02-28T09:30:02;6.00;99.90
5588;DHT22;2816;49.778;9.986;2024-02-28T09:32:31;6.20;99.90
5588;DHT22;2816;49.778;9.986;2024-02-28T09:34:57;6.30;99.90
5588;DHT22;2816;49.778;9.986;2024-02-28T09:37:24;6.40;99.90
5588;DHT22;2816;49.778;9.986;2024-02-28T09:39:52;6.50;99.90
5588;DHT22;2816;49.778;9.986;2024-02-28T09:42:20;6.40;99.90
5588;DHT22;2816;49.778;9.986;2024-02-28T09:44:46;6.50;99.90
5588;DHT22;2816;49.778;9.986;2024-02-28T09:47:13;6.70;99.90
5588;DHT22;2816;49.778;9.986;2024-02-28T09:49:45;6.90;99.90
5588;DHT22;2816;49.778;9.986;2024-02-28T09:52:15;6.90;99.90
5588;DHT22;2816;49.778;9.986;2024-02-28T09:54:42;7.00;99.90
5588;DHT22;2816;49.778;9.986;2024-02-28T09:57:11;7.00;99.90
5588;DHT22;2816;49.778;9.986;2024-02-28T09:59:39;7.10;99.90
5588;DHT22;2816;49.778;9.986;2024-02-28T10:02:09;7.10;99.90
5588;DHT22;2816;49.778;9.986;2024-02-28T10:04:37;7.20;99.90
5588;DHT22;2816;49.778;9.986;2024-02-28T10:07:12;7.20;99.90
5588;DHT22;2816;49.778;9.986;2024-02-28T10:09:39;7.20;99.90
5588;DHT22;2816;49.778;9.986;2024-02-28T10:12:06;7.20;99.90
5588;DHT22;2816;49.778;9.986;2024-02-28T10:14:33;7.20;99.90
5588;DHT22;2816;49.778;9.986;2024-02-28T10:17:00;7.10;99.90
5588;DHT22;2816;49.778;9.986;2024-02-28T10:19:27;7.10;99.90
5588;DHT22;2816;49.778;9.986;2024-02-28T10:21:55;7.30;99.90
5588;DHT22;2816;49.778;9.986;2024-02-28T10:24:25;7.40;99.90
5588;DHT22;2816;49.778;9.986;2024-02-28T10:26:52;7.10;99.90
5588;DHT22;2816;49.778;9.986;2024-02-28T10:29:22;7.00;99.90
5588;DHT22;2816;49.778;9.986;2024-02-28T10:31:49;7.00;99.90
5588;DHT22;2816;49.778;9.986;2024-02-28T10:34:17;7.10;99.90
5588;DHT22;2816;49.778;9.986;2024-02-28T10:36:44;7.10;99.90
5588;DHT22;2816;49.778;9.986;2024-02-28T10:39:12;7.10;99.90
5588;DHT22;2816;49.778;9.986;2024-02-28T10:41:41;7.20;99.90
5588;DHT22;2816;49.778;9.986;2024-02-28T10:44:09;7.30;99.90
5588;DHT22;2816;49.778;9.986;2024-02-28T10:46:37;7.30;99.90
5588;DHT22;2816;49.778;9.986;2024-02-28T10:49:05;7.60;99.90
5588;DHT22;2816;49.778;9.986;2024-02-28T10:51:35;8.00;99.90
5588;DHT22;2816;49.778;9.986;2024-02-28T10:54:08;8.20;99.90
5588;DHT22;2816;49.778;9.986;2024-02-28T10:56:37;8.20;99.90
5588;DHT22;2816;49.778;9.986;2024-02-28T10:59:06;8.30;99.90
5588;DHT22;2816;49.778;9.986;2024-02-28T11:01:34;8.40;99.90
5588;DHT22;2816;49.778;9.986;2024-02-28T11:04:03;8.40;99.90
5588;DHT22;2816;49.778;9.986;2024-02-28T11:06:31;8.40;99.90
5588;DHT22;2816;49.778;9.986;2024-02-28T11:09:00;8.40;99.90
5588;DHT22;2816;49.778;9.986;2024-02-28T11:11:30;8.40;99.90
5588;DHT22;2816;49.778;9.986;2024-02-28T11:13:58;8.50;99.90
5588;DHT22;2816;49.778;9.986;2024-02-28T11:16:29;8.60;99.90
5588;DHT22;2816;49.778;9.986;2024-02-28T11:18:56;8.60;99.90
5588;DHT22;2816;49.778;9.986;2024-02-28T11:21:24;8.80;99.90
5588;DHT22;2816;49.778;9.986;2024-02-28T11:23:57;8.60;99.90
5588;DHT22;2816;49.778;9.986;2024-02-28T11:26:24;8.80;99.90
5588;DHT22;2816;49.778;9.986;2024-02-28T11:28:53;8.80;99.90
5588;DHT22;2816;49.778;9.986;2024-02-28T11:31:20;9.20;99.90
5588;DHT22;2816;49.778;9.986;2024-02-28T11:33:49;9.40;99.90
5588;DHT22;2816;49.778;9.986;2024-02-28T11:36:16;9.50;99.90
5588;DHT22;2816;49.778;9.986;2024-02-28T11:38:43;9.60;99.90
5588;DHT22;2816;49.778;9.986;2024-02-28T11:41:09;9.70;99.90
5588;DHT22;2816;49.778;9.986;2024-02-28T11:43:36;9.90;99.90
5588;DHT22;2816;49.778;9.986;2024-02-28T11:46:08;10.20;99.90
5588;DHT22;2816;49.778;9.986;2024-02-28T11:48:35;10.50;99.90
5588;DHT22;2816;49.778;9.986;2024-02-28T11:51:04;10.50;99.90
5588;DHT22;2816;49.778;9.986;2024-02-28T11:53:31;10.40;99.90
5588;DHT22;2816;49.778;9.986;2024-02-28T11:55:58;10.10;99.90
5588;DHT22;2816;49.778;9.986;2024-02-28T11:58:25;10.40;99.90
5588;DHT22;2816;49.778;9.986;2024-02-28T12:00:52;10.30;99.90
5588;DHT22;2816;49.778;9.986;2024-02-28T12:03:22;10.40;99.90
5588;DHT22;2816;49.778;9.986;2024-02-28T12:05:51;10.80;99.90
5588;DHT22;2816;49.778;9.986;2024-02-28T12:08:19;11.00;99.90
5588;DHT22;2816;49.778;9.986;2024-02-28T12:10:46;11.00;99.90
5588;DHT22;2816;49.778;9.986;2024-02-28T12:13:16;11.10;99.90
5588;DHT22;2816;49.778;9.986;2024-02-28T12:15:43;11.20;99.90
5588;DHT22;2816;49.778;9.986;2024-02-28T12:18:11;11.30;99.90
5588;DHT22;2816;49.778;9.986;2024-02-28T12:20:38;11.40;99.90
5588;DHT22;2816;49.778;9.986;2024-02-28T12:23:05;11.00;99.90
5588;DHT22;2816;49.778;9.986;2024-02-28T12:25:35;11.20;99.90
5588;DHT22;2816;49.778;9.986;2024-02-28T12:28:02;11.60;99.90
5588;DHT22;2816;49.778;9.986;2024-02-28T12:30:31;11.80;99.90
5588;DHT22;2816;49.778;9.986;2024-02-28T12:32:57;12.00;99.90
5588;DHT22;2816;49.778;9.986;2024-02-28T12:35:25;11.80;99.80
5588;DHT22;2816;49.778;9.986;2024-02-28T12:37:52;11.80;99.60
5588;DHT22;2816;49.778;9.986;2024-02-28T12:40:19;11.90;98.70
5588;DHT22;2816;49.778;9.986;2024-02-28T12:42:47;12.00;99.00
5588;DHT22;2816;49.778;9.986;2024-02-28T12:45:14;12.00;98.20
5588;DHT22;2816;49.778;9.986;2024-02-28T12:47:41;12.20;97.70
5588;DHT22;2816;49.778;9.986;2024-02-28T12:50:08;12.10;98.50
5588;DHT22;2816;49.778;9.986;2024-02-28T12:52:36;12.30;97.60
5588;DHT22;2816;49.778;9.986;2024-02-28T12:55:04;12.20;97.90
5588;DHT22;2816;49.778;9.986;2024-02-28T12:57:30;12.30;97.20
5588;DHT22;2816;49.778;9.986;2024-02-28T12:59:59;12.30;97.20
5588;DHT22;2816;49.778;9.986;2024-02-28T13:02:26;11.90;97.10
5588;DHT22;2816;49.778;9.986;2024-02-28T13:04:52;12.00;97.80
5588;DHT22;2816;49.778;9.986;2024-02-28T13:07:19;12.20;97.60
5588;DHT22;2816;49.778;9.986;2024-02-28T13:09:48;12.50;97.40
5588;DHT22;2816;49.778;9.986;2024-02-28T13:12:15;12.60;97.40
5588;DHT22;2816;49.778;9.986;2024-02-28T13:14:42;12.60;97.90
5588;DHT22;2816;49.778;9.986;2024-02-28T13:17:10;12.90;97.00
5588;DHT22;2816;49.778;9.986;2024-02-28T13:19:37;13.00;95.70
5588;DHT22;2816;49.778;9.986;2024-02-28T13:22:05;12.50;96.90
5588;DHT22;2816;49.778;9.986;2024-02-28T13:24:32;12.80;97.40
5588;DHT22;2816;49.778;9.986;2024-02-28T13:27:01;13.20;96.70
5588;DHT22;2816;49.778;9.986;2024-02-28T13:29:28;13.20;96.10
5588;DHT22;2816;49.778;9.986;2024-02-28T13:31:56;13.30;96.20
5588;DHT22;2816;49.778;9.986;2024-02-28T13:34:25;13.20;95.30
5588;DHT22;2816;49.778;9.986;2024-02-28T13:36:52;13.20;95.80
5588;DHT22;2816;49.778;9.986;2024-02-28T13:39:19;13.40;95.10
5588;DHT22;2816;49.778;9.986;2024-02-28T13:41:46;13.40;94.10
5588;DHT22;2816;49.778;9.986;2024-02-28T13:44:16;13.20;93.90
5588;DHT22;2816;49.778;9.986;2024-02-28T13:46:43;13.10;93.70
5588;DHT22;2816;49.778;9.986;2024-02-28T13:49:10;12.80;94.50
5588;DHT22;2816;49.778;9.986;2024-02-28T13:51:38;12.80;94.20
5588;DHT22;2816;49.778;9.986;2024-02-28T13:54:05;13.30;94.90
5588;DHT22;2816;49.778;9.986;2024-02-28T13:56:32;13.20;93.80
5588;DHT22;2816;49.778;9.986;2024-02-28T13:58:59;12.80;93.20
5588;DHT22;2816;49.778;9.986;2024-02-28T14:01:26;12.90;95.40
5588;DHT22;2816;49.778;9.986;2024-02-28T14:03:54;13.30;95.00
5588;DHT22;2816;49.778;9.986;2024-02-28T14:06:21;13.40;94.40
5588;DHT22;2816;49.778;9.986;2024-02-28T14:08:49;12.90;98.60
5588;DHT22;2816;49.778;9.986;2024-02-28T14:11:17;13.10;95.50
5588;DHT22;2816;49.778;9.986;2024-02-28T14:13:44;13.20;95.40
5588;DHT22;2816;49.778;9.986;2024-02-28T14:16:12;13.40;95.80
5588;DHT22;2816;49.778;9.986;2024-02-28T14:18:39;13.60;95.10
5588;DHT22;2816;49.778;9.986;2024-02-28T14:21:06;13.90;94.40
5588;DHT22;2816;49.778;9.986;2024-02-28T14:23:33;13.90;95.20
5588;DHT22;2816;49.778;9.986;2024-02-28T14:26:02;13.80;94.40
5588;DHT22;2816;49.778;9.986;2024-02-28T14:28:29;13.60;95.00
5588;DHT22;2816;49.778;9.986;2024-02-28T14:30:56;13.60;94.80
5588;DHT22;2816;49.778;9.986;2024-02-28T14:33:22;13.60;95.00
5588;DHT22;2816;49.778;9.986;2024-02-28T14:35:49;13.60;94.60
5588;DHT22;2816;49.778;9.986;2024-02-28T14:38:17;13.70;94.90
5588;DHT22;2816;49.778;9.986;2024-02-28T14:40:44;13.70;94.70
5588;DHT22;2816;49.778;9.986;2024-02-28T14:43:12;13.70;94.70
5588;DHT22;2816;49.778;9.986;2024-02-28T14:45:39;13.50;94.60
5588;DHT22;2816;49.778;9.986;2024-02-28T14:48:07;13.40;94.60
5588;DHT22;2816;49.778;9.986;2024-02-28T14:50:34;13.60;94.50
5588;DHT22;2816;49.778;9.986;2024-02-28T14:53:00;13.70;94.70
5588;DHT22;2816;49.778;9.986;2024-02-28T14:55:28;13.70;94.30
5588;DHT22;2816;49.778;9.986;2024-02-28T14:57:55;13.60;94.30
5588;DHT22;2816;49.778;9.986;2024-02-28T15:00:23;13.70;94.50
5588;DHT22;2816;49.778;9.986;2024-02-28T15:02:52;13.70;93.90
5588;DHT22;2816;49.778;9.986;2024-02-28T15:05:19;13.20;93.60
5588;DHT22;2816;49.778;9.986;2024-02-28T15:07:46;13.10;94.10
5588;DHT22;2816;49.778;9.986;2024-02-28T15:10:14;13.10;94.00
5588;DHT22;2816;49.778;9.986;2024-02-28T15:12:42;13.00;95.10
5588;DHT22;2816;49.778;9.986;2024-02-28T15:15:10;13.20;94.30
5588;DHT22;2816;49.778;9.986;2024-02-28T15:17:39;13.10;94.10
5588;DHT22;2816;49.778;9.986;2024-02-28T15:20:07;13.00;94.20
5588;DHT22;2816;49.778;9.986;2024-02-28T15:22:34;13.10;94.60
5588;DHT22;2816;49.778;9.986;2024-02-28T15:25:01;13.20;94.50
5588;DHT22;2816;49.778;9.986;2024-02-28T15:27:28;13.10;93.90
5588;DHT22;2816;49.778;9.986;2024-02-28T15:29:55;13.10;93.90
5588;DHT22;2816;49.778;9.986;2024-02-28T15:32:22;13.20;95.00
5588;DHT22;2816;49.778;9.986;2024-02-28T15:34:50;13.20;93.90
5588;DHT22;2816;49.778;9.986;2024-02-28T15:37:18;12.90;94.70
5588;DHT22;2816;49.778;9.986;2024-02-28T15:39:45;13.00;94.20
5588;DHT22;2816;49.778;9.986;2024-02-28T15:42:11;13.00;94.50
5588;DHT22;2816;49.778;9.986;2024-02-28T15:44:38;12.80;94.30
5588;DHT22;2816;49.778;9.986;2024-02-28T15:47:07;12.50;94.50
5588;DHT22;2816;49.778;9.986;2024-02-28T15:49:34;12.40;95.10
5588;DHT22;2816;49.778;9.986;2024-02-28T15:52:03;12.30;95.30
5588;DHT22;2816;49.778;9.986;2024-02-28T15:54:30;12.00;95.30
5588;DHT22;2816;49.778;9.986;2024-02-28T15:56:57;11.90;96.10
5588;DHT22;2816;49.778;9.986;2024-02-28T15:59:26;11.80;96.00
5588;DHT22;2816;49.778;9.986;2024-02-28T16:01:52;11.70;96.20
5588;DHT22;2816;49.778;9.986;2024-02-28T16:04:19;11.60;96.10
5588;DHT22;2816;49.778;9.986;2024-02-28T16:06:46;11.60;96.40
5588;DHT22;2816;49.778;9.986;2024-02-28T16:09:15;11.60;96.20
5588;DHT22;2816;49.778;9.986;2024-02-28T16:11:43;11.60;96.90
5588;DHT22;2816;49.778;9.986;2024-02-28T16:14:10;11.50;97.10